Time;durP1;ratioP1;P1;durP2;ratioP2;P2;SDS_P1;SDS_P2;PMS_P1;PMS_P2;Temp;Humidity;BMP_temperature;BMP_pressure;BME280_temperature;BME280_humidity;BME280_pressure;Samples;Min_cycle;Max_cycle;Signal;HPM_P1;HPM_P2
2022/05/04 00:01:31;;;;;;;13.00;4.70;;;;;;;9.40;69.87;101774.31;5029351;28;20049;-68
2022/05/04 00:03:56;;;;;;;13.85;4.80;;;;;;;9.39;69.92;101767.22;5030660;28;20033;-68
2022/05/04 00:06:22;;;;;;;8.57;4.63;;;;;;;9.39;69.30;101763.66;5032024;28;20050;-68
2022/05/04 00:08:47;;;;;;;11.32;4.63;;;;;;;9.31;70.03;101770.03;5032651;28;20517;-68
2022/05/04 00:11:13;;;;;;;15.38;4.60;;;;;;;9.30;69.59;101768.41;5031213;28;20495;-68
2022/05/04 00:13:38;;;;;;;12.88;4.65;;;;;;;9.23;70.45;101768.31;5032237;28;20037;-67
2022/05/04 00:16:04;;;;;;;11.57;4.97;;;;;;;9.27;70.46;101771.50;5030941;28;20032;-68
2022/05/04 00:18:30;;;;;;;11.85;4.95;;;;;;;9.25;70.20;101768.13;5032433;28;20035;-68
2022/05/04 00:20:56;;;;;;;15.68;5.28;;;;;;;9.24;69.94;101769.16;5032541;28;20056;-68
2022/05/04 00:23:21;;;;;;;12.65;5.00;;;;;;;9.25;70.28;101768.13;5032029;28;20029;-68
2022/05/04 00:25:47;;;;;;;12.65;5.10;;;;;;;9.20;70.04;101770.59;5032400;28;20444;-68
2022/05/04 00:28:12;;;;;;;11.57;5.07;;;;;;;9.19;71.39;101769.75;5032404;28;20384;-68
2022/05/04 00:30:37;;;;;;;14.05;5.45;;;;;;;9.17;70.26;101771.78;5032086;28;20112;-68
2022/05/04 00:33:02;;;;;;;14.02;5.70;;;;;;;9.22;70.54;101763.97;5031847;28;20033;-68
2022/05/04 00:35:28;;;;;;;14.32;5.18;;;;;;;9.20;71.92;101770.59;5030983;28;20068;-67
2022/05/04 00:37:53;;;;;;;14.60;5.55;;;;;;;9.17;70.97;101769.09;5032070;28;20033;-68
2022/05/04 00:40:18;;;;;;;14.50;5.63;;;;;;;9.19;72.14;101763.50;5035631;28;20108;-68
2022/05/04 00:42:44;;;;;;;14.23;5.40;;;;;;;9.22;71.54;101772.06;5036397;28;20021;-68
2022/05/04 00:45:10;;;;;;;15.38;5.43;;;;;;;9.19;71.62;101767.06;5034776;28;20116;-68
2022/05/04 00:47:36;;;;;;;10.55;5.43;;;;;;;9.15;71.95;101763.06;5051643;28;20041;-68
2022/05/04 00:50:04;;;;;;;13.57;6.00;;;;;;;9.12;72.49;101758.06;5018019;28;20495;-68
2022/05/04 00:52:34;;;;;;;12.88;6.00;;;;;;;9.10;72.29;101767.34;5036365;28;20419;-68
2022/05/04 00:55:01;;;;;;;10.80;5.90;;;;;;;9.05;71.43;101765.25;5036118;28;20080;-68
2022/05/04 01:00:12;;;;;;;12.35;5.57;;;;;;;9.07;72.74;101765.06;5035545;28;20060;-68
2022/05/04 01:02:38;;;;;;;12.52;5.50;;;;;;;9.04;72.18;101761.72;5032461;28;20053;-68
2022/05/04 01:05:05;;;;;;;14.18;5.70;;;;;;;9.02;72.12;101763.75;5034211;28;20065;-68
2022/05/04 01:07:31;;;;;;;11.68;5.57;;;;;;;9.04;72.52;101758.16;5036118;28;20049;-68
2022/05/04 01:09:56;;;;;;;15.60;5.93;;;;;;;9.04;72.30;101752.75;5035624;28;20022;-68
2022/05/04 01:12:22;;;;;;;12.05;5.72;;;;;;;9.08;72.49;101750.53;5035305;28;20084;-68
2022/05/04 01:14:48;;;;;;;13.73;6.03;;;;;;;9.03;72.46;101760.03;5034453;28;20033;-68
2022/05/04 01:17:13;;;;;;;14.75;5.63;;;;;;;9.09;73.16;101763.84;5035389;28;20036;-68
2022/05/04 01:19:38;;;;;;;13.32;6.03;;;;;;;9.08;72.65;101753.22;5035139;28;20030;-68
2022/05/04 01:22:04;;;;;;;16.08;5.53;;;;;;;9.12;72.21;101755.34;5035363;28;20455;-68
2022/05/04 01:24:29;;;;;;;13.68;6.13;;;;;;;9.07;71.96;101759.66;5034284;28;20036;-68
2022/05/04 01:26:54;;;;;;;13.90;5.60;;;;;;;9.05;72.38;101763.38;5035439;28;20517;-68
2022/05/04 01:29:19;;;;;;;14.90;5.60;;;;;;;9.04;72.60;101766.25;5034737;28;20033;-68
2022/05/04 01:31:45;;;;;;;13.57;5.20;;;;;;;9.07;71.92;101756.94;5035024;28;20033;-68
2022/05/04 01:34:10;;;;;;;14.50;5.30;;;;;;;9.08;72.02;101764.03;5035158;28;20065;-67
2022/05/04 01:36:35;;;;;;;15.95;5.43;;;;;;;9.09;72.23;101762.97;5035361;28;20358;-68
2022/05/04 01:39:00;;;;;;;12.98;5.72;;;;;;;9.05;72.28;101767.94;5034886;28;20087;-68
2022/05/04 01:44:10;;;;;;;20.40;5.40;;;;;;;9.10;72.35;101757.38;5034773;28;20447;-68
2022/05/04 01:46:35;;;;;;;15.50;6.00;;;;;;;9.07;72.18;101756.94;5035231;28;20029;-68
2022/05/04 01:49:00;;;;;;;10.85;5.03;;;;;;;9.03;71.67;101757.34;5034890;28;20033;-68
2022/05/04 01:51:25;;;;;;;14.07;5.05;;;;;;;9.00;72.45;101759.59;5033762;28;20037;-68
2022/05/04 01:53:51;;;;;;;10.07;4.93;;;;;;;9.06;73.00;101753.41;5035050;28;20439;-68
2022/05/04 01:56:16;;;;;;;13.30;5.00;;;;;;;9.03;72.72;101754.63;5034492;28;20025;-68
2022/05/04 01:58:42;;;;;;;15.20;5.75;;;;;;;9.05;71.79;101755.25;5034668;28;20029;-68
2022/05/04 02:01:07;;;;;;;12.57;4.82;;;;;;;8.96;72.04;101753.72;5031111;28;20045;-68
2022/05/04 02:03:33;;;;;;;17.80;5.90;;;;;;;8.94;71.88;101747.69;5034864;28;20108;-67
2022/05/04 02:05:58;;;;;;;12.77;5.22;;;;;;;9.01;72.62;101754.00;5034891;28;20104;-68
2022/05/04 02:08:24;;;;;;;15.30;5.53;;;;;;;8.89;72.28;101747.41;5033254;28;20033;-68
2022/05/04 02:10:50;;;;;;;13.70;5.97;;;;;;;8.91;72.90;101755.31;5034494;28;20044;-67
2022/05/04 02:13:15;;;;;;;11.50;5.28;;;;;;;8.87;72.11;101752.19;5034142;28;20037;-68
2022/05/04 02:15:41;;;;;;;14.00;5.40;;;;;;;8.85;73.10;101746.16;5034699;28;20353;-67
2022/05/04 02:18:06;;;;;;;13.25;5.28;;;;;;;8.95;72.77;101754.78;5034422;28;20462;-68
2022/05/04 02:20:32;;;;;;;13.57;5.28;;;;;;;8.93;72.52;101748.72;5033819;28;20116;-68
2022/05/04 02:22:57;;;;;;;12.18;5.38;;;;;;;8.93;72.04;101745.19;5034813;28;20021;-68
2022/05/04 02:25:22;;;;;;;20.23;5.55;;;;;;;8.93;72.36;101735.22;5032945;28;20033;-69
2022/05/04 02:27:48;;;;;;;14.50;5.78;;;;;;;8.97;72.79;101744.59;5033773;28;20104;-69
2022/05/04 02:30:13;;;;;;;15.38;5.15;;;;;;;8.96;72.18;101745.63;5033621;28;20506;-68
2022/05/04 02:32:39;;;;;;;17.92;5.88;;;;;;;8.94;73.37;101736.91;5033780;28;20033;-72
2022/05/04 02:37:55;;;;;;;17.35;5.53;;;;;;;8.89;72.76;101739.31;5033882;28;20090;-69
2022/05/04 02:40:20;;;;;;;17.33;5.63;;;;;;;8.88;72.49;101743.06;5033928;28;20453;-69
2022/05/04 02:42:46;;;;;;;13.00;5.18;;;;;;;8.94;72.80;101745.00;5033280;28;20030;-68
2022/05/04 02:45:11;;;;;;;11.75;5.20;;;;;;;8.93;73.00;101743.31;5033676;28;20029;-68
2022/05/04 02:47:38;;;;;;;13.27;5.22;;;;;;;8.87;72.28;101738.69;5033838;28;20362;-68
2022/05/04 02:50:03;;;;;;;12.10;5.32;;;;;;;8.87;72.26;101738.69;5033766;28;20118;-68
2022/05/04 02:52:29;;;;;;;11.27;4.97;;;;;;;8.80;72.54;101733.22;5033622;28;20096;-68
2022/05/04 02:54:54;;;;;;;10.25;4.90;;;;;;;8.77;72.64;101730.91;5034144;28;20029;-68
2022/05/04 02:57:19;;;;;;;12.98;6.13;;;;;;;8.78;72.47;101737.13;5033733;28;20467;-68
2022/05/04 02:59:45;;;;;;;13.32;5.32;;;;;;;8.73;72.50;101728.78;5033534;28;20437;-68
2022/05/04 03:02:28;;;;;;;13.30;5.43;;;;;;;8.73;72.21;101734.19;5029868;28;20052;-68
2022/05/04 03:05:07;;;;;;;11.00;5.20;;;;;;;8.76;72.39;101731.94;5033616;28;20591;-68
2022/05/04 03:07:32;;;;;;;13.10;5.50;;;;;;;8.74;72.89;101731.28;5032075;28;20155;-68
2022/05/04 03:09:58;;;;;;;15.43;5.63;;;;;;;8.71;73.15;101728.13;5033392;28;20118;-68
2022/05/04 03:12:25;;;;;;;13.43;5.53;;;;;;;8.69;72.28;101723.75;5032659;28;20030;-68
2022/05/04 03:14:50;;;;;;;15.13;5.57;;;;;;;8.63;72.03;101719.13;5033267;28;20029;-68
2022/05/04 03:17:17;;;;;;;17.42;5.82;;;;;;;8.62;73.51;101722.88;5032891;28;20039;-68
2022/05/04 03:19:42;;;;;;;14.07;5.40;;;;;;;8.60;72.81;101715.97;5033448;28;20029;-68
2022/05/04 03:22:08;;;;;;;14.88;5.72;;;;;;;8.57;72.84;101721.75;5033131;28;20083;-68
2022/05/04 03:24:33;;;;;;;14.73;6.00;;;;;;;8.61;73.58;101723.06;5033087;28;20049;-68
2022/05/04 03:26:59;;;;;;;16.90;5.53;;;;;;;8.61;73.29;101717.66;5033265;28;20040;-68
2022/05/04 03:29:24;;;;;;;17.85;5.57;;;;;;;8.60;72.60;101710.56;5032842;28;20036;-68
2022/05/04 03:31:50;;;;;;;16.85;5.90;;;;;;;8.63;73.60;101711.03;5032872;28;20032;-68
2022/05/04 03:34:15;;;;;;;12.57;5.00;;;;;;;8.69;73.27;101714.81;5032674;28;20075;-68
2022/05/04 03:36:41;;;;;;;17.92;5.30;;;;;;;8.69;72.76;101718.34;5033165;28;20044;-68
2022/05/04 03:39:07;;;;;;;15.30;5.50;;;;;;;8.66;72.65;101712.50;5032732;28;20044;-68
2022/05/04 03:41:33;;;;;;;13.68;5.13;;;;;;;8.65;72.38;101719.78;5032480;28;20041;-68
2022/05/04 03:43:59;;;;;;;17.25;5.30;;;;;;;8.59;72.42;101723.25;5032724;28;20057;-68
2022/05/04 03:46:26;;;;;;;14.85;5.90;;;;;;;8.50;72.88;101719.00;5032631;28;20463;-68
2022/05/04 03:48:56;;;;;;;18.00;5.57;;;;;;;8.44;72.20;101715.19;5032904;28;20033;-68
2022/05/04 03:51:22;;;;;;;13.38;4.97;;;;;;;8.48;72.98;101712.94;5032686;28;20033;-68
2022/05/04 03:53:48;;;;;;;20.50;6.00;;;;;;;8.39;73.09;101714.03;5032616;28;20155;-68
2022/05/04 03:56:14;;;;;;;19.25;6.28;;;;;;;8.39;74.04;101719.44;5032493;28;20029;-68
2022/05/04 03:58:40;;;;;;;15.60;4.93;;;;;;;8.39;73.50;101719.44;5032795;28;20036;-68
2022/05/04 04:01:06;;;;;;;18.25;5.57;;;;;;;8.43;72.96;101716.16;5029128;28;20396;-68
2022/05/04 04:03:31;;;;;;;15.38;5.65;;;;;;;8.46;74.24;101713.13;5031665;28;20032;-68
2022/05/04 04:05:57;;;;;;;18.33;5.55;;;;;;;8.46;73.04;101720.38;5032552;28;20056;-69
2022/05/04 04:08:22;;;;;;;16.23;6.07;;;;;;;8.44;73.49;101717.03;5032447;28;20449;-68
2022/05/04 04:10:49;;;;;;;13.40;5.70;;;;;;;8.47;73.64;101719.34;5032918;28;20037;-68
2022/05/04 04:13:15;;;;;;;14.30;5.22;;;;;;;8.41;73.77;101718.22;5031858;28;20108;-68
2022/05/04 04:15:40;;;;;;;12.27;5.20;;;;;;;8.42;73.32;101716.34;5032310;28;20032;-68
2022/05/04 04:18:06;;;;;;;16.80;5.40;;;;;;;8.46;72.56;101715.00;5032426;28;20416;-68
2022/05/04 04:23:15;;;;;;;17.60;6.07;;;;;;;8.38;73.17;101712.34;5032176;28;20048;-68
2022/05/04 04:25:40;;;;;;;11.05;5.43;;;;;;;8.36;74.98;101715.25;5032340;28;20029;-69
2022/05/04 04:28:05;;;;;;;16.30;6.32;;;;;;;8.33;73.45;101712.94;5032399;28;20163;-69
2022/05/04 04:30:31;;;;;;;12.48;5.50;;;;;;;8.34;73.97;101712.75;5032543;28;20099;-68
2022/05/04 04:32:56;;;;;;;16.23;6.05;;;;;;;8.40;73.96;101713.84;5032333;28;20453;-68
2022/05/04 04:35:21;;;;;;;16.23;6.25;;;;;;;8.41;73.86;101722.75;5031995;28;20468;-68
2022/05/04 04:37:47;;;;;;;15.18;5.78;;;;;;;8.41;74.02;101718.22;5032389;28;20040;-68
2022/05/04 04:40:12;;;;;;;14.90;5.60;;;;;;;8.40;73.39;101721.13;5047691;28;20029;-68
2022/05/04 04:42:37;;;;;;;15.07;6.00;;;;;;;8.38;73.45;101723.16;5032178;28;20030;-68
2022/05/04 04:45:03;;;;;;;17.35;5.82;;;;;;;8.31;74.91;101728.47;5032018;28;20473;-68
2022/05/04 04:47:29;;;;;;;14.73;5.90;;;;;;;8.37;74.48;101726.88;5014119;28;20472;-68
2022/05/04 04:49:56;;;;;;;12.80;6.22;;;;;;;8.26;73.43;101718.25;5032220;28;20040;-68
2022/05/04 04:52:22;;;;;;;15.55;5.68;;;;;;;8.27;74.92;101722.63;5031715;28;20028;-68
2022/05/04 04:54:47;;;;;;;16.45;5.55;;;;;;;8.39;74.66;101720.25;5031945;28;20030;-69
2022/05/04 04:57:12;;;;;;;15.65;6.20;;;;;;;8.40;74.75;101721.13;5030919;28;20045;-68
2022/05/04 04:59:37;;;;;;;15.95;5.95;;;;;;;8.39;73.67;101719.44;5031883;28;20428;-68
2022/05/04 05:02:03;;;;;;;14.95;5.53;;;;;;;8.30;73.81;101722.25;5028163;28;20051;-68
2022/05/04 05:04:28;;;;;;;16.45;6.28;;;;;;;8.28;74.27;101723.47;5031389;28;20034;-68
2022/05/04 05:06:54;;;;;;;14.10;5.85;;;;;;;8.29;74.32;101725.13;5032224;28;20050;-68
2022/05/04 05:09:19;;;;;;;15.52;5.75;;;;;;;8.26;74.35;101723.66;5031861;28;20037;-68
2022/05/04 05:11:44;;;;;;;12.07;5.40;;;;;;;8.32;74.37;101725.59;5047299;28;20520;-68
2022/05/04 05:16:53;;;;;;;20.15;6.05;;;;;;;8.27;73.37;101727.16;5031729;28;20075;-68
2022/05/04 05:19:19;;;;;;;21.67;6.38;;;;;;;8.30;73.88;101724.94;5031853;28;20127;-68
2022/05/04 05:21:44;;;;;;;22.77;6.38;;;;;;;8.37;74.07;101732.28;5031983;28;20042;-68
2022/05/04 05:24:09;;;;;;;18.17;6.72;;;;;;;8.33;74.11;101727.28;5031925;28;20112;-68
2022/05/04 05:26:35;;;;;;;14.70;6.00;;;;;;;8.37;73.31;101725.03;5033555;28;20025;-68
2022/05/04 05:29:00;;;;;;;15.35;6.22;;;;;;;8.38;73.83;101736.63;5035687;28;20129;-68
2022/05/04 05:31:25;;;;;;;18.33;7.32;;;;;;;8.32;73.97;101736.38;5034734;28;20038;-68
2022/05/04 05:33:51;;;;;;;14.10;5.57;;;;;;;8.34;73.13;101734.31;5035473;28;20033;-68
2022/05/04 05:36:16;;;;;;;18.30;5.63;;;;;;;8.38;73.41;101732.09;5035159;28;20029;-68
2022/05/04 05:38:41;;;;;;;22.05;6.25;;;;;;;8.33;73.30;101727.28;5035080;28;20056;-68
2022/05/04 05:41:06;;;;;;;16.73;7.00;;;;;;;8.37;73.42;101729.59;5035052;28;20057;-68
2022/05/04 05:43:32;;;;;;;17.50;6.10;;;;;;;8.39;73.22;101724.84;5035076;28;20032;-68
2022/05/04 05:45:57;;;;;;;18.42;6.75;;;;;;;8.39;73.03;101731.03;5035155;28;20417;-68
2022/05/04 05:48:22;;;;;;;14.90;6.13;;;;;;;8.45;72.65;101729.50;5034928;28;20060;-68
2022/05/04 05:50:48;;;;;;;16.58;6.40;;;;;;;8.51;73.71;101732.28;5034897;28;20357;-69
2022/05/04 05:53:14;;;;;;;15.68;6.72;;;;;;;8.51;73.40;101731.44;5035091;28;20036;-68
2022/05/04 05:55:40;;;;;;;14.23;6.22;;;;;;;8.52;72.71;101741.22;5034574;28;20396;-69
2022/05/04 05:58:05;;;;;;;16.40;6.57;;;;;;;8.56;72.55;101741.66;5035002;28;20026;-68
2022/05/04 06:00:31;;;;;;;21.55;6.95;;;;;;;8.58;72.77;101740.44;5032743;28;20362;-68
2022/05/04 06:02:56;;;;;;;17.80;6.50;;;;;;;8.65;72.28;101735.13;5033266;28;20049;-69
2022/05/04 06:05:21;;;;;;;13.02;6.20;;;;;;;8.66;72.93;101740.31;5034253;28;20041;-69
2022/05/04 06:07:48;;;;;;;12.18;5.95;;;;;;;8.72;72.58;101744.13;5034574;28;20029;-68
2022/05/04 06:10:14;;;;;;;20.73;6.57;;;;;;;8.70;72.11;101743.50;5034879;28;20026;-69
2022/05/04 06:12:40;;;;;;;18.13;6.38;;;;;;;8.72;72.50;101746.00;5034337;28;20366;-69
2022/05/04 06:15:09;;;;;;;16.75;6.50;;;;;;;8.76;72.51;101748.13;5034700;28;20032;-69
2022/05/04 06:17:35;;;;;;;18.20;6.72;;;;;;;8.81;71.71;101755.66;5032959;28;20037;-69
2022/05/04 06:20:00;;;;;;;18.58;5.85;;;;;;;8.79;71.75;101755.00;5034621;28;20095;-69
2022/05/04 06:22:26;;;;;;;13.80;5.97;;;;;;;8.88;71.39;101751.16;5034062;28;20465;-69
2022/05/04 06:24:51;;;;;;;18.77;6.63;;;;;;;8.94;70.94;101758.50;5034392;28;20088;-69
2022/05/04 06:27:16;;;;;;;19.85;6.13;;;;;;;9.04;70.56;101761.72;5034052;28;20029;-68
2022/05/04 06:35:10;;;;;;;17.98;6.20;;;;;;;9.21;69.79;101751.47;5034152;28;20068;-69
2022/05/04 06:37:36;;;;;;;14.15;5.40;;;;;;;9.28;69.67;101750.72;5033736;28;20072;-69
2022/05/04 06:40:02;;;;;;;18.08;6.00;;;;;;;9.30;69.99;101759.44;5034171;28;20053;-68
2022/05/04 06:42:27;;;;;;;17.58;6.07;;;;;;;9.30;70.04;101760.28;5033613;28;20037;-69
2022/05/04 06:44:52;;;;;;;16.55;6.50;;;;;;;9.33;69.22;101768.00;5034074;28;20472;-69
2022/05/04 06:47:17;;;;;;;14.55;6.15;;;;;;;9.33;69.89;101770.72;5032740;28;20032;-69
2022/05/04 06:49:43;;;;;;;19.35;6.25;;;;;;;9.36;69.97;101764.91;5033803;28;20334;-69
2022/05/04 06:52:08;;;;;;;19.45;6.20;;;;;;;9.38;69.44;101773.66;5033756;28;20469;-70
2022/05/04 06:54:34;;;;;;;16.70;5.50;;;;;;;9.40;69.27;101768.06;5033488;28;20026;-69
2022/05/04 06:56:59;;;;;;;16.58;5.57;;;;;;;9.43;69.01;101761.44;5033512;28;20033;-70
2022/05/04 06:59:26;;;;;;;14.85;6.18;;;;;;;9.52;69.42;101752.16;5032091;28;20041;-71
2022/05/04 07:01:52;;;;;;;15.57;5.97;;;;;;;9.58;68.59;101759.47;5030519;28;20068;-70
2022/05/04 07:04:17;;;;;;;17.27;6.30;;;;;;;9.66;68.97;101761.19;5033713;28;20440;-71
2022/05/04 07:06:42;;;;;;;18.13;6.18;;;;;;;9.67;68.50;101761.00;5033489;28;20461;-70
2022/05/04 07:09:08;;;;;;;19.15;6.25;;;;;;;9.69;67.92;101758.94;5033002;28;20053;-71
2022/05/04 07:11:33;;;;;;;16.23;5.78;;;;;;;9.79;68.54;101753.19;5033370;28;20099;-69
2022/05/04 07:13:58;;;;;;;16.67;5.20;;;;;;;9.84;66.67;101763.41;5033515;28;20056;-69
2022/05/04 07:16:23;;;;;;;13.98;5.65;;;;;;;9.85;66.46;101754.25;5032127;28;20087;-69
2022/05/04 07:18:49;;;;;;;17.35;5.95;;;;;;;9.86;65.80;101750.53;5031594;28;20055;-69
2022/05/04 07:21:14;;;;;;;16.35;5.90;;;;;;;9.88;64.83;101745.75;5033459;28;20021;-68
2022/05/04 07:23:39;;;;;;;15.68;5.78;;;;;;;9.97;66.38;101749.97;5032819;28;20049;-68
2022/05/04 07:26:04;;;;;;;19.40;5.85;;;;;;;10.02;65.40;101742.09;5048623;28;20396;-68
2022/05/04 07:28:30;;;;;;;12.75;5.40;;;;;;;10.07;65.51;101745.03;5048392;28;20030;-68
2022/05/04 07:30:55;;;;;;;17.13;5.80;;;;;;;10.15;64.82;101754.03;5032973;28;20108;-68
2022/05/04 07:33:21;;;;;;;21.17;5.65;;;;;;;10.20;64.23;101748.84;5032898;28;20044;-68
2022/05/04 07:35:46;;;;;;;11.52;5.80;;;;;;;10.29;65.60;101748.47;5032662;28;20396;-69
2022/05/04 07:38:11;;;;;;;14.52;5.70;;;;;;;10.34;65.42;101753.34;5033375;28;20388;-69
2022/05/04 07:43:20;;;;;;;16.63;5.88;;;;;;;10.50;64.43;101757.53;5032566;28;20067;-68
2022/05/04 07:45:46;;;;;;;15.18;6.30;;;;;;;10.53;64.35;101743.59;5032582;28;20025;-69
2022/05/04 07:48:11;;;;;;;19.63;6.20;;;;;;;10.60;65.35;101741.75;5032161;28;20472;-68
2022/05/04 07:50:37;;;;;;;15.25;6.13;;;;;;;10.64;63.46;101753.00;5032758;28;20472;-69
2022/05/04 07:53:02;;;;;;;14.40;5.93;;;;;;;10.72;63.81;101757.41;5014665;28;20087;-69
2022/05/04 07:55:30;;;;;;;17.33;6.32;;;;;;;10.73;63.02;101765.31;5032346;28;20029;-70
2022/05/04 07:57:55;;;;;;;18.05;6.43;;;;;;;10.73;61.38;101759.91;5032453;28;20037;-69
2022/05/04 08:05:49;;;;;;;15.05;6.63;;;;;;;10.80;63.60;101760.75;5032249;28;20463;-69
2022/05/04 08:08:14;;;;;;;16.70;6.80;;;;;;;10.87;63.42;101754.53;5032603;28;20029;-70
2022/05/04 08:10:41;;;;;;;15.30;6.40;;;;;;;10.92;62.65;101765.59;5031254;28;20041;-69
2022/05/04 08:13:06;;;;;;;18.88;6.93;;;;;;;10.96;63.53;101758.72;5032002;28;20112;-69
2022/05/04 08:15:31;;;;;;;13.50;6.20;;;;;;;10.99;61.83;101761.84;5032134;28;20041;-69
2022/05/04 08:17:58;;;;;;;20.02;6.65;;;;;;;10.98;60.91;101762.06;5031996;28;20464;-69
2022/05/04 08:20:25;;;;;;;11.85;6.43;;;;;;;11.01;61.66;101756.25;5032564;28;20056;-68
2022/05/04 08:22:50;;;;;;;13.40;6.78;;;;;;;11.04;61.26;101752.28;5031956;28;20160;-68
2022/05/04 08:25:17;;;;;;;14.90;7.18;;;;;;;11.05;61.14;101757.50;5032526;28;20125;-68
2022/05/04 08:27:43;;;;;;;15.35;6.82;;;;;;;11.06;62.23;101761.03;5031464;28;20029;-68
2022/05/04 08:30:09;;;;;;;18.65;7.30;;;;;;;11.07;61.07;101758.13;5031528;28;20037;-68
2022/05/04 08:32:34;;;;;;;18.98;7.70;;;;;;;11.16;61.46;101756.88;5032192;28;20036;-69
2022/05/04 08:35:00;;;;;;;13.40;7.00;;;;;;;11.24;61.44;101758.56;5032465;28;20059;-69
2022/05/04 08:37:29;;;;;;;17.27;7.00;;;;;;;11.23;61.33;101756.91;5032357;28;20065;-68
2022/05/04 08:39:55;;;;;;;15.73;7.25;;;;;;;11.29;60.98;101760.63;5031694;28;20117;-69
2022/05/04 08:42:21;;;;;;;13.77;7.35;;;;;;;11.26;60.45;101758.34;5032398;28;20052;-68
2022/05/04 08:44:49;;;;;;;18.48;7.25;;;;;;;11.39;59.83;101757.53;5030928;28;20029;-69
2022/05/04 08:47:17;;;;;;;17.23;7.43;;;;;;;11.42;59.92;101754.41;5031663;28;20487;-71
2022/05/04 08:49:44;;;;;;;11.68;6.78;;;;;;;11.44;59.16;101763.97;5031526;28;20461;-68
2022/05/04 08:52:11;;;;;;;18.70;8.20;;;;;;;11.34;59.59;101750.03;5032211;28;20051;-68
2022/05/04 08:54:36;;;;;;;16.02;7.28;;;;;;;11.32;59.85;101747.53;5047027;28;20034;-68
2022/05/04 08:57:03;;;;;;;15.13;7.60;;;;;;;11.38;59.81;101753.16;5032351;28;20040;-67
2022/05/04 08:59:28;;;;;;;13.75;7.45;;;;;;;11.41;59.22;101756.25;5047950;28;20389;-68
2022/05/04 09:01:54;;;;;;;15.50;6.85;;;;;;;11.47;58.50;101750.03;5032326;28;20053;-67
2022/05/04 09:04:19;;;;;;;15.23;7.50;;;;;;;11.49;59.22;101763.38;5036068;28;20033;-68
2022/05/04 09:06:45;;;;;;;16.20;7.65;;;;;;;11.48;59.96;101748.97;5035692;28;20178;-68
2022/05/04 09:09:10;;;;;;;15.35;7.63;;;;;;;11.72;60.89;101748.56;5035427;28;20041;-68
2022/05/04 09:11:41;;;;;;;15.70;6.82;;;;;;;11.77;58.87;101749.56;5035617;28;20032;-68
2022/05/04 09:14:08;;;;;;;11.47;7.40;;;;;;;11.83;57.70;101758.75;5035772;28;20056;-68
2022/05/04 09:16:34;;;;;;;14.68;6.93;;;;;;;11.87;58.20;101746.44;5035318;28;20681;-68
2022/05/04 09:19:07;;;;;;;15.77;6.80;;;;;;;11.93;58.57;101748.34;5035439;28;20109;-68
2022/05/04 09:21:33;;;;;;;14.25;7.10;;;;;;;12.08;58.07;101756.22;5035613;28;20030;-68
2022/05/04 09:23:59;;;;;;;13.27;6.88;;;;;;;11.97;56.74;101737.88;5035585;28;20025;-68
2022/05/04 09:26:25;;;;;;;12.32;6.85;;;;;;;11.97;56.17;101737.88;5035416;28;20059;-68
2022/05/04 09:28:57;;;;;;;17.45;7.70;;;;;;;11.97;56.11;101727.88;5034956;28;20214;-68
2022/05/04 09:31:27;;;;;;;16.83;7.72;;;;;;;11.89;57.16;101742.44;5035370;28;20033;-68
2022/05/04 09:33:58;;;;;;;15.98;7.88;;;;;;;11.92;58.56;101734.94;5035057;28;20043;-68
2022/05/04 09:44:54;;;;;;;11.60;6.80;;;;;;;12.03;58.33;101739.75;5035492;28;20030;-69
2022/05/04 09:45:06;;;;;;;16.63;7.97;;;;;;;12.34;57.33;101740.91;5036069;28;20044;-71
2022/05/04 09:47:36;;;;;;;18.35;7.93;;;;;;;12.41;57.46;101736.28;5029523;28;20040;-70
2022/05/04 09:50:05;;;;;;;13.73;7.35;;;;;;;12.43;57.87;101734.19;5042958;28;20385;-70
2022/05/04 09:52:43;;;;;;;15.45;8.10;;;;;;;12.53;57.93;101728.28;5038222;28;20079;-69
2022/05/04 09:55:15;;;;;;;15.77;8.10;;;;;;;12.50;56.18;101737.72;5034853;28;20029;-70
2022/05/04 09:57:45;;;;;;;14.18;7.97;;;;;;;12.59;57.49;101730.13;5034413;28;20041;-70
2022/05/04 10:00:14;;;;;;;14.60;7.55;;;;;;;12.69;57.28;101718.81;5034550;28;20433;-70
2022/05/04 10:02:41;;;;;;;19.10;7.82;;;;;;;12.70;54.79;101725.91;5030954;28;20053;-70
2022/05/04 10:05:08;;;;;;;17.35;7.70;;;;;;;12.67;54.67;101720.91;5034549;28;20050;-70
2022/05/04 10:07:36;;;;;;;16.88;7.53;;;;;;;12.71;55.16;101722.97;5034410;28;20132;-70
2022/05/04 10:10:01;;;;;;;13.88;7.53;;;;;;;12.69;54.79;101725.06;5034672;28;20052;-71
2022/05/04 10:12:28;;;;;;;15.18;8.00;;;;;;;12.69;54.88;101724.22;5034018;28;20453;-70
2022/05/04 10:15:00;;;;;;;16.92;7.90;;;;;;;12.73;55.82;101726.28;5034133;28;20057;-72
2022/05/04 10:17:26;;;;;;;23.25;7.65;;;;;;;12.90;55.14;101715.72;5033004;28;20029;-69
2022/05/04 10:19:59;;;;;;;14.23;7.53;;;;;;;12.98;53.68;101728.22;5026820;28;20041;-70
2022/05/04 10:22:55;;;;;;;16.10;7.40;;;;;;;13.00;54.03;101717.97;5045210;28;20039;-70
2022/05/04 10:25:23;;;;;;;12.88;6.57;;;;;;;12.97;52.88;101720.28;5022825;28;20495;-73
2022/05/04 10:27:49;;;;;;;15.40;7.10;;;;;;;12.93;52.36;101717.19;5033650;28;20037;-70
2022/05/04 10:30:30;;;;;;;17.92;8.35;;;;;;;12.86;52.98;101711.81;5034148;28;20083;-69
2022/05/04 10:32:59;;;;;;;15.00;8.60;;;;;;;12.99;53.47;101729.06;5032829;28;20029;-73
2022/05/04 10:35:41;;;;;;;16.00;7.82;;;;;;;13.00;53.59;101719.84;5014495;28;20273;-69
2022/05/04 10:38:15;;;;;;;10.68;6.90;;;;;;;13.12;53.45;101712.69;5014464;28;20053;-69
2022/05/04 10:40:50;;;;;;;13.30;7.28;;;;;;;13.32;54.15;101715.22;5025653;28;20431;-69
2022/05/04 10:43:31;;;;;;;13.98;7.80;;;;;;;13.32;52.60;101711.69;5033802;28;20025;-69
2022/05/04 10:46:04;;;;;;;19.65;8.82;;;;;;;13.43;53.83;101709.06;5032802;28;20493;-69
2022/05/04 10:48:29;;;;;;;13.95;7.57;;;;;;;13.54;53.87;101712.13;5033748;28;20107;-69
2022/05/04 10:51:09;;;;;;;13.45;7.05;;;;;;;13.60;52.43;101711.22;5032522;28;20060;-69
2022/05/04 10:53:40;;;;;;;15.15;6.55;;;;;;;13.59;50.94;101713.13;5033933;28;20037;-69
2022/05/04 10:56:09;;;;;;;14.77;7.00;;;;;;;13.65;50.77;101708.69;5033925;28;20076;-69
2022/05/04 10:58:39;;;;;;;17.77;7.30;;;;;;;13.63;51.73;101706.19;5033915;28;20052;-69
2022/05/04 11:01:10;;;;;;;12.63;7.00;;;;;;;13.66;51.52;101696.72;5030054;28;20046;-69
2022/05/04 11:03:47;;;;;;;17.67;7.13;;;;;;;13.82;51.68;101700.75;5033802;28;20420;-69
2022/05/04 11:06:22;;;;;;;16.50;7.25;;;;;;;14.03;52.43;101698.66;5033309;28;20045;-69
2022/05/04 11:08:48;;;;;;;15.40;7.80;;;;;;;14.09;51.54;101700.47;5033644;28;20026;-69
2022/05/04 11:11:14;;;;;;;17.85;7.85;;;;;;;14.20;50.70;101698.88;5033238;28;20033;-69
2022/05/04 11:13:42;;;;;;;14.88;8.32;;;;;;;14.36;51.34;101692.78;5033592;28;20026;-69
2022/05/04 11:16:09;;;;;;;15.60;8.07;;;;;;;14.46;51.22;101700.41;5033558;28;20035;-69
2022/05/04 11:18:35;;;;;;;16.38;7.88;;;;;;;14.35;50.52;101694.66;5033325;28;20072;-69
2022/05/04 11:21:05;;;;;;;16.63;8.60;;;;;;;14.41;50.71;101692.94;5031791;28;20033;-69
2022/05/04 11:23:30;;;;;;;17.15;8.18;;;;;;;14.46;50.24;101674.03;5032260;28;20033;-69
2022/05/04 11:25:56;;;;;;;19.92;7.43;;;;;;;14.78;52.44;101686.56;5032863;28;20523;-70
2022/05/04 11:28:23;;;;;;;15.98;7.88;;;;;;;14.88;51.11;101684.13;5033191;28;20461;-69
2022/05/04 11:30:49;;;;;;;15.18;8.00;;;;;;;14.91;48.96;101686.38;5032569;28;20029;-69
2022/05/04 11:33:15;;;;;;;15.48;7.45;;;;;;;15.02;49.04;101685.59;5033355;28;20377;-69
2022/05/04 11:35:43;;;;;;;15.10;7.60;;;;;;;15.07;49.21;101680.25;5032954;28;20461;-69
2022/05/04 11:38:19;;;;;;;18.38;8.23;;;;;;;15.03;48.82;101678.22;5033143;28;20029;-69
2022/05/04 11:40:46;;;;;;;16.77;7.50;;;;;;;15.07;48.64;101674.78;5032586;28;20029;-69
2022/05/04 11:43:22;;;;;;;15.43;7.90;;;;;;;15.10;48.97;101672.66;5033047;28;20056;-69
2022/05/04 11:45:49;;;;;;;17.02;8.10;;;;;;;15.07;47.81;101673.97;5032780;28;20030;-69
2022/05/04 11:48:16;;;;;;;14.55;7.65;;;;;;;15.07;48.77;101673.97;5032843;28;20028;-69
2022/05/04 11:50:43;;;;;;;13.90;7.38;;;;;;;15.28;49.91;101669.00;5032696;28;20029;-69
2022/05/04 11:53:08;;;;;;;16.80;8.07;;;;;;;15.33;47.57;101667.22;5031559;28;20040;-69